KCBK/CBK METAR and TAF weather

Enter ICAO airport designator
Station Type Date Time Source
KCBK METAR 2021/03/01 03:15 UTC NOAA

KCBK 010315Z AUTO 20003KT 10SM CLR M06/M12 A3018 RMK AO2 PWINO


Station Type Date Time Source
KCBK Decoded METAR 2021/03/01 03:15 UTC NOAA

Station name not available
Feb 28, 2021 - 10:15 PM EST / 2021.03.01 0315 UTC
Wind: from the SSW (200 degrees) at 3 MPH (3 KT):0
Visibility: 10 mile(s):0
Sky conditions: clear
Temperature: 21 F (-6 C)
Dew Point: 10 F (-12 C)
Relative Humidity: 62%
Pressure (altimeter): 30.18 in. Hg (1022 hPa)
ob: KCBK 010315Z AUTO 20003KT 10SM CLR M06/M12 A3018 RMK AO2 PWINO
cycle: 3

Station Type Date Time Source
KCBK TAF UTC NOAA

Error!

Example: see airport list